sensor_id;sensor_type;location;lat;lon;timestamp;P1;durP1;ratioP1;P2;durP2;ratioP2
10005;SDS011;5042;42.626;23.382;2023-03-01T00:01:53;2.93;;;2.40;;
10005;SDS011;5042;42.626;23.382;2023-03-01T00:04:20;2.90;;;2.03;;
10005;SDS011;5042;42.626;23.382;2023-03-01T00:06:47;3.03;;;2.33;;
10005;SDS011;5042;42.626;23.382;2023-03-01T00:09:14;3.43;;;2.83;;
10005;SDS011;5042;42.626;23.382;2023-03-01T00:11:41;4.20;;;3.13;;
10005;SDS011;5042;42.626;23.382;2023-03-01T00:14:08;4.80;;;3.60;;
10005;SDS011;5042;42.626;23.382;2023-03-01T00:16:36;5.87;;;3.37;;
10005;SDS011;5042;42.626;23.382;2023-03-01T00:19:07;5.23;;;3.77;;
10005;SDS011;5042;42.626;23.382;2023-03-01T00:21:35;4.73;;;3.57;;
10005;SDS011;5042;42.626;23.382;2023-03-01T00:24:02;2.67;;;2.47;;
10005;SDS011;5042;42.626;23.382;2023-03-01T00:26:29;3.40;;;2.80;;
10005;SDS011;5042;42.626;23.382;2023-03-01T00:28:57;4.10;;;3.70;;
10005;SDS011;5042;42.626;23.382;2023-03-01T00:31:26;4.43;;;3.00;;
10005;SDS011;5042;42.626;23.382;2023-03-01T00:33:54;3.43;;;3.10;;
10005;SDS011;5042;42.626;23.382;2023-03-01T00:36:24;3.23;;;2.53;;
10005;SDS011;5042;42.626;23.382;2023-03-01T00:38:51;1.77;;;1.60;;
10005;SDS011;5042;42.626;23.382;2023-03-01T00:41:18;1.00;;;0.93;;
10005;SDS011;5042;42.626;23.382;2023-03-01T00:43:48;2.47;;;2.27;;
10005;SDS011;5042;42.626;23.382;2023-03-01T00:46:16;3.30;;;2.17;;
10005;SDS011;5042;42.626;23.382;2023-03-01T00:48:44;1.60;;;1.50;;
10005;SDS011;5042;42.626;23.382;2023-03-01T00:51:12;1.80;;;1.60;;
10005;SDS011;5042;42.626;23.382;2023-03-01T00:53:42;2.57;;;2.03;;
10005;SDS011;5042;42.626;23.382;2023-03-01T00:56:10;2.33;;;2.13;;
10005;SDS011;5042;42.626;23.382;2023-03-01T00:58:38;2.30;;;1.87;;
10005;SDS011;5042;42.626;23.382;2023-03-01T01:01:08;0.53;;;0.53;;
10005;SDS011;5042;42.626;23.382;2023-03-01T01:03:42;0.53;;;0.53;;
10005;SDS011;5042;42.626;23.382;2023-03-01T01:06:13;2.07;;;1.87;;
10005;SDS011;5042;42.626;23.382;2023-03-01T01:08:42;2.03;;;1.83;;
10005;SDS011;5042;42.626;23.382;2023-03-01T01:11:09;1.53;;;1.43;;
10005;SDS011;5042;42.626;23.382;2023-03-01T01:13:36;1.27;;;1.20;;
10005;SDS011;5042;42.626;23.382;2023-03-01T01:16:03;2.70;;;2.30;;
10005;SDS011;5042;42.626;23.382;2023-03-01T01:18:31;1.93;;;1.73;;
10005;SDS011;5042;42.626;23.382;2023-03-01T01:21:02;1.63;;;1.53;;
10005;SDS011;5042;42.626;23.382;2023-03-01T01:23:29;3.33;;;2.33;;
10005;SDS011;5042;42.626;23.382;2023-03-01T01:25:58;1.87;;;1.73;;
10005;SDS011;5042;42.626;23.382;2023-03-01T01:28:30;1.23;;;1.13;;
10005;SDS011;5042;42.626;23.382;2023-03-01T01:30:57;2.20;;;1.50;;
10005;SDS011;5042;42.626;23.382;2023-03-01T01:33:24;1.50;;;1.37;;
10005;SDS011;5042;42.626;23.382;2023-03-01T01:35:51;1.60;;;1.50;;
10005;SDS011;5042;42.626;23.382;2023-03-01T01:38:18;2.80;;;2.00;;
10005;SDS011;5042;42.626;23.382;2023-03-01T01:40:46;2.60;;;1.90;;
10005;SDS011;5042;42.626;23.382;2023-03-01T01:43:18;0.90;;;0.90;;
10005;SDS011;5042;42.626;23.382;2023-03-01T01:45:47;1.20;;;1.20;;
10005;SDS011;5042;42.626;23.382;2023-03-01T01:48:15;1.53;;;1.40;;
10005;SDS011;5042;42.626;23.382;2023-03-01T01:50:45;2.63;;;1.30;;
10005;SDS011;5042;42.626;23.382;2023-03-01T01:53:17;1.33;;;1.23;;
10005;SDS011;5042;42.626;23.382;2023-03-01T01:55:47;1.63;;;1.47;;
10005;SDS011;5042;42.626;23.382;2023-03-01T01:58:19;1.40;;;1.30;;
10005;SDS011;5042;42.626;23.382;2023-03-01T02:00:48;1.60;;;1.50;;
10005;SDS011;5042;42.626;23.382;2023-03-01T02:03:16;1.00;;;1.00;;
10005;SDS011;5042;42.626;23.382;2023-03-01T02:05:47;0.60;;;0.60;;
10005;SDS011;5042;42.626;23.382;2023-03-01T02:08:19;1.30;;;1.30;;
10005;SDS011;5042;42.626;23.382;2023-03-01T02:10:47;0.90;;;0.90;;
10005;SDS011;5042;42.626;23.382;2023-03-01T02:13:15;0.60;;;0.60;;
10005;SDS011;5042;42.626;23.382;2023-03-01T02:15:44;0.77;;;0.60;;
10005;SDS011;5042;42.626;23.382;2023-03-01T02:18:11;0.77;;;0.77;;
10005;SDS011;5042;42.626;23.382;2023-03-01T02:20:43;0.90;;;0.90;;
10005;SDS011;5042;42.626;23.382;2023-03-01T02:23:17;0.97;;;0.97;;
10005;SDS011;5042;42.626;23.382;2023-03-01T02:25:46;1.47;;;1.37;;
10005;SDS011;5042;42.626;23.382;2023-03-01T02:31:05;1.03;;;1.03;;
10005;SDS011;5042;42.626;23.382;2023-03-01T02:33:50;2.13;;;2.00;;
10005;SDS011;5042;42.626;23.382;2023-03-01T02:36:19;2.10;;;1.87;;
10005;SDS011;5042;42.626;23.382;2023-03-01T02:38:50;1.40;;;1.30;;
10005;SDS011;5042;42.626;23.382;2023-03-01T02:41:19;1.53;;;1.43;;
10005;SDS011;5042;42.626;23.382;2023-03-01T02:43:49;1.50;;;1.33;;
10005;SDS011;5042;42.626;23.382;2023-03-01T02:46:17;1.63;;;1.53;;
10005;SDS011;5042;42.626;23.382;2023-03-01T02:48:46;2.10;;;1.90;;
10005;SDS011;5042;42.626;23.382;2023-03-01T02:51:19;2.17;;;1.97;;
10005;SDS011;5042;42.626;23.382;2023-03-01T02:54:08;1.80;;;1.70;;
10005;SDS011;5042;42.626;23.382;2023-03-01T02:56:41;1.37;;;1.27;;
10005;SDS011;5042;42.626;23.382;2023-03-01T02:59:14;3.00;;;1.77;;
10005;SDS011;5042;42.626;23.382;2023-03-01T03:01:42;1.83;;;1.70;;
10005;SDS011;5042;42.626;23.382;2023-03-01T03:04:10;1.70;;;1.60;;
10005;SDS011;5042;42.626;23.382;2023-03-01T03:06:41;1.47;;;1.37;;
10005;SDS011;5042;42.626;23.382;2023-03-01T03:09:08;2.53;;;2.33;;
10005;SDS011;5042;42.626;23.382;2023-03-01T03:11:35;3.50;;;2.60;;
10005;SDS011;5042;42.626;23.382;2023-03-01T03:14:04;1.67;;;1.57;;
10005;SDS011;5042;42.626;23.382;2023-03-01T03:16:35;1.87;;;1.77;;
10005;SDS011;5042;42.626;23.382;2023-03-01T03:19:02;2.23;;;2.03;;
10005;SDS011;5042;42.626;23.382;2023-03-01T03:21:30;3.40;;;2.47;;
10005;SDS011;5042;42.626;23.382;2023-03-01T03:23:57;4.13;;;2.87;;
10005;SDS011;5042;42.626;23.382;2023-03-01T03:26:24;3.27;;;2.50;;
10005;SDS011;5042;42.626;23.382;2023-03-01T03:28:51;4.13;;;3.07;;
10005;SDS011;5042;42.626;23.382;2023-03-01T03:31:18;3.57;;;3.27;;
10005;SDS011;5042;42.626;23.382;2023-03-01T03:33:47;4.93;;;3.27;;
10005;SDS011;5042;42.626;23.382;2023-03-01T03:36:15;3.57;;;3.10;;
10005;SDS011;5042;42.626;23.382;2023-03-01T03:38:43;3.07;;;2.77;;
10005;SDS011;5042;42.626;23.382;2023-03-01T03:41:10;3.40;;;3.10;;
10005;SDS011;5042;42.626;23.382;2023-03-01T03:43:39;4.97;;;3.53;;
10005;SDS011;5042;42.626;23.382;2023-03-01T03:46:07;3.23;;;2.93;;
10005;SDS011;5042;42.626;23.382;2023-03-01T03:48:35;3.10;;;2.80;;
10005;SDS011;5042;42.626;23.382;2023-03-01T03:51:05;3.37;;;3.07;;
10005;SDS011;5042;42.626;23.382;2023-03-01T03:53:33;2.83;;;2.50;;
10005;SDS011;5042;42.626;23.382;2023-03-01T03:56:00;3.27;;;2.73;;
10005;SDS011;5042;42.626;23.382;2023-03-01T03:58:26;3.10;;;2.80;;
10005;SDS011;5042;42.626;23.382;2023-03-01T04:00:54;2.80;;;2.60;;
10005;SDS011;5042;42.626;23.382;2023-03-01T04:03:23;2.40;;;2.20;;
10005;SDS011;5042;42.626;23.382;2023-03-01T04:05:51;2.83;;;2.63;;
10005;SDS011;5042;42.626;23.382;2023-03-01T04:08:20;3.93;;;2.70;;
10005;SDS011;5042;42.626;23.382;2023-03-01T04:10:49;3.97;;;2.30;;
10005;SDS011;5042;42.626;23.382;2023-03-01T04:13:18;1.17;;;1.17;;
10005;SDS011;5042;42.626;23.382;2023-03-01T04:15:45;2.87;;;2.30;;
10005;SDS011;5042;42.626;23.382;2023-03-01T04:18:13;2.27;;;2.07;;
10005;SDS011;5042;42.626;23.382;2023-03-01T04:20:40;1.83;;;1.67;;
10005;SDS011;5042;42.626;23.382;2023-03-01T04:23:10;2.00;;;1.80;;
10005;SDS011;5042;42.626;23.382;2023-03-01T04:25:42;2.60;;;2.17;;
10005;SDS011;5042;42.626;23.382;2023-03-01T04:28:14;2.63;;;2.07;;
10005;SDS011;5042;42.626;23.382;2023-03-01T04:30:42;2.67;;;2.30;;
10005;SDS011;5042;42.626;23.382;2023-03-01T04:33:09;2.40;;;2.20;;
10005;SDS011;5042;42.626;23.382;2023-03-01T04:35:36;2.67;;;2.30;;
10005;SDS011;5042;42.626;23.382;2023-03-01T04:38:04;3.13;;;2.23;;
10005;SDS011;5042;42.626;23.382;2023-03-01T04:40:31;3.03;;;2.17;;
10005;SDS011;5042;42.626;23.382;2023-03-01T04:42:59;2.73;;;2.23;;
10005;SDS011;5042;42.626;23.382;2023-03-01T04:45:26;3.07;;;2.57;;
10005;SDS011;5042;42.626;23.382;2023-03-01T04:47:53;2.93;;;2.60;;
10005;SDS011;5042;42.626;23.382;2023-03-01T04:50:23;3.47;;;2.50;;
10005;SDS011;5042;42.626;23.382;2023-03-01T04:52:51;2.50;;;2.03;;
10005;SDS011;5042;42.626;23.382;2023-03-01T04:55:18;3.33;;;2.80;;
10005;SDS011;5042;42.626;23.382;2023-03-01T04:57:45;2.03;;;1.87;;
10005;SDS011;5042;42.626;23.382;2023-03-01T05:00:15;2.53;;;2.33;;
10005;SDS011;5042;42.626;23.382;2023-03-01T05:02:48;2.70;;;2.50;;
10005;SDS011;5042;42.626;23.382;2023-03-01T05:05:23;2.63;;;2.43;;
10005;SDS011;5042;42.626;23.382;2023-03-01T05:07:52;3.47;;;3.00;;
10005;SDS011;5042;42.626;23.382;2023-03-01T05:10:20;3.83;;;2.77;;
10005;SDS011;5042;42.626;23.382;2023-03-01T05:12:47;3.83;;;3.00;;
10005;SDS011;5042;42.626;23.382;2023-03-01T05:15:15;4.17;;;3.20;;
10005;SDS011;5042;42.626;23.382;2023-03-01T05:17:42;3.23;;;2.77;;
10005;SDS011;5042;42.626;23.382;2023-03-01T05:20:09;2.30;;;2.10;;
10005;SDS011;5042;42.626;23.382;2023-03-01T05:22:36;2.20;;;2.00;;
10005;SDS011;5042;42.626;23.382;2023-03-01T05:25:04;3.73;;;3.23;;
10005;SDS011;5042;42.626;23.382;2023-03-01T05:27:32;2.53;;;2.33;;
10005;SDS011;5042;42.626;23.382;2023-03-01T05:29:59;3.07;;;2.77;;
10005;SDS011;5042;42.626;23.382;2023-03-01T05:32:39;3.87;;;2.13;;
10005;SDS011;5042;42.626;23.382;2023-03-01T05:35:10;2.30;;;1.43;;
10005;SDS011;5042;42.626;23.382;2023-03-01T05:37:39;1.70;;;1.40;;
10005;SDS011;5042;42.626;23.382;2023-03-01T05:40:08;1.67;;;1.57;;
10005;SDS011;5042;42.626;23.382;2023-03-01T05:42:42;3.27;;;2.10;;
10005;SDS011;5042;42.626;23.382;2023-03-01T05:45:10;2.23;;;2.00;;
10005;SDS011;5042;42.626;23.382;2023-03-01T05:47:40;2.17;;;2.07;;
10005;SDS011;5042;42.626;23.382;2023-03-01T05:50:10;2.33;;;2.13;;
10005;SDS011;5042;42.626;23.382;2023-03-01T05:52:43;2.20;;;2.00;;
10005;SDS011;5042;42.626;23.382;2023-03-01T05:55:11;1.83;;;1.70;;
10005;SDS011;5042;42.626;23.382;2023-03-01T05:57:38;3.43;;;2.10;;
10005;SDS011;5042;42.626;23.382;2023-03-01T06:00:05;2.57;;;2.37;;
10005;SDS011;5042;42.626;23.382;2023-03-01T06:02:33;2.07;;;1.77;;
10005;SDS011;5042;42.626;23.382;2023-03-01T06:05:01;1.30;;;1.20;;
10005;SDS011;5042;42.626;23.382;2023-03-01T06:07:28;1.57;;;1.47;;
10005;SDS011;5042;42.626;23.382;2023-03-01T06:09:55;1.80;;;1.70;;
10005;SDS011;5042;42.626;23.382;2023-03-01T06:12:22;1.57;;;1.50;;
10005;SDS011;5042;42.626;23.382;2023-03-01T06:14:48;1.50;;;1.47;;
10005;SDS011;5042;42.626;23.382;2023-03-01T06:17:15;1.50;;;1.40;;
10005;SDS011;5042;42.626;23.382;2023-03-01T06:19:42;1.93;;;1.30;;
10005;SDS011;5042;42.626;23.382;2023-03-01T06:22:10;1.30;;;1.20;;
10005;SDS011;5042;42.626;23.382;2023-03-01T06:24:37;2.13;;;1.47;;
10005;SDS011;5042;42.626;23.382;2023-03-01T06:27:03;1.50;;;1.40;;
10005;SDS011;5042;42.626;23.382;2023-03-01T06:29:30;0.80;;;0.80;;
10005;SDS011;5042;42.626;23.382;2023-03-01T06:31:57;1.30;;;1.20;;
10005;SDS011;5042;42.626;23.382;2023-03-01T06:34:24;1.70;;;1.60;;
10005;SDS011;5042;42.626;23.382;2023-03-01T06:36:50;1.10;;;1.10;;
10005;SDS011;5042;42.626;23.382;2023-03-01T06:39:18;0.60;;;0.60;;
10005;SDS011;5042;42.626;23.382;2023-03-01T06:41:45;2.03;;;1.17;;
10005;SDS011;5042;42.626;23.382;2023-03-01T06:44:12;0.67;;;0.67;;
10005;SDS011;5042;42.626;23.382;2023-03-01T06:46:39;1.90;;;1.30;;
10005;SDS011;5042;42.626;23.382;2023-03-01T06:49:06;1.53;;;1.37;;
10005;SDS011;5042;42.626;23.382;2023-03-01T06:51:34;1.47;;;1.37;;
10005;SDS011;5042;42.626;23.382;2023-03-01T06:54:02;1.10;;;1.10;;
10005;SDS011;5042;42.626;23.382;2023-03-01T06:56:30;1.40;;;1.30;;
10005;SDS011;5042;42.626;23.382;2023-03-01T06:58:57;2.23;;;1.80;;
10005;SDS011;5042;42.626;23.382;2023-03-01T07:01:24;1.27;;;1.17;;
10005;SDS011;5042;42.626;23.382;2023-03-01T07:03:51;1.40;;;1.30;;
10005;SDS011;5042;42.626;23.382;2023-03-01T07:06:17;1.13;;;1.10;;
10005;SDS011;5042;42.626;23.382;2023-03-01T07:08:44;2.47;;;2.13;;
10005;SDS011;5042;42.626;23.382;2023-03-01T07:11:11;1.70;;;1.60;;
10005;SDS011;5042;42.626;23.382;2023-03-01T07:13:39;1.50;;;1.40;;
10005;SDS011;5042;42.626;23.382;2023-03-01T07:16:07;2.30;;;1.70;;
10005;SDS011;5042;42.626;23.382;2023-03-01T07:18:34;0.97;;;0.97;;
10005;SDS011;5042;42.626;23.382;2023-03-01T07:21:03;1.40;;;1.30;;
10005;SDS011;5042;42.626;23.382;2023-03-01T07:23:30;1.57;;;1.20;;
10005;SDS011;5042;42.626;23.382;2023-03-01T07:25:57;1.87;;;1.60;;
10005;SDS011;5042;42.626;23.382;2023-03-01T07:28:25;1.87;;;1.70;;
10005;SDS011;5042;42.626;23.382;2023-03-01T07:30:54;1.70;;;1.60;;
10005;SDS011;5042;42.626;23.382;2023-03-01T07:33:20;1.60;;;1.50;;
10005;SDS011;5042;42.626;23.382;2023-03-01T07:35:47;1.80;;;1.50;;
10005;SDS011;5042;42.626;23.382;2023-03-01T07:38:14;1.30;;;1.20;;
10005;SDS011;5042;42.626;23.382;2023-03-01T07:40:41;2.90;;;1.30;;
10005;SDS011;5042;42.626;23.382;2023-03-01T07:43:07;2.10;;;1.80;;
10005;SDS011;5042;42.626;23.382;2023-03-01T07:45:34;1.90;;;1.80;;
10005;SDS011;5042;42.626;23.382;2023-03-01T07:48:02;1.33;;;1.23;;
10005;SDS011;5042;42.626;23.382;2023-03-01T07:50:29;1.77;;;1.67;;
10005;SDS011;5042;42.626;23.382;2023-03-01T07:52:56;1.83;;;1.50;;
10005;SDS011;5042;42.626;23.382;2023-03-01T07:55:23;1.80;;;1.60;;
10005;SDS011;5042;42.626;23.382;2023-03-01T07:57:49;2.87;;;1.60;;
10005;SDS011;5042;42.626;23.382;2023-03-01T08:00:16;1.67;;;1.57;;
10005;SDS011;5042;42.626;23.382;2023-03-01T08:02:44;1.33;;;1.23;;
10005;SDS011;5042;42.626;23.382;2023-03-01T08:05:12;1.93;;;1.57;;
10005;SDS011;5042;42.626;23.382;2023-03-01T08:07:38;1.73;;;1.57;;
10005;SDS011;5042;42.626;23.382;2023-03-01T08:10:06;1.40;;;1.30;;
10005;SDS011;5042;42.626;23.382;2023-03-01T08:12:33;1.67;;;1.57;;
10005;SDS011;5042;42.626;23.382;2023-03-01T08:15:00;2.03;;;1.50;;
10005;SDS011;5042;42.626;23.382;2023-03-01T08:17:26;2.33;;;1.63;;
10005;SDS011;5042;42.626;23.382;2023-03-01T08:19:53;1.70;;;1.60;;
10005;SDS011;5042;42.626;23.382;2023-03-01T08:22:21;1.57;;;1.30;;
10005;SDS011;5042;42.626;23.382;2023-03-01T08:24:48;2.00;;;1.80;;
10005;SDS011;5042;42.626;23.382;2023-03-01T08:27:15;1.60;;;1.50;;
10005;SDS011;5042;42.626;23.382;2023-03-01T08:29:42;1.70;;;1.60;;
10005;SDS011;5042;42.626;23.382;2023-03-01T08:32:09;5.30;;;2.30;;
10005;SDS011;5042;42.626;23.382;2023-03-01T08:34:36;1.70;;;1.60;;
10005;SDS011;5042;42.626;23.382;2023-03-01T08:37:02;1.43;;;1.33;;
10005;SDS011;5042;42.626;23.382;2023-03-01T08:39:31;3.00;;;2.20;;
10005;SDS011;5042;42.626;23.382;2023-03-01T08:41:58;1.70;;;1.60;;
10005;SDS011;5042;42.626;23.382;2023-03-01T08:44:24;2.33;;;1.60;;
10005;SDS011;5042;42.626;23.382;2023-03-01T08:46:52;1.80;;;1.67;;
10005;SDS011;5042;42.626;23.382;2023-03-01T08:49:21;1.50;;;1.40;;
10005;SDS011;5042;42.626;23.382;2023-03-01T08:51:48;1.87;;;1.57;;
10005;SDS011;5042;42.626;23.382;2023-03-01T08:54:16;4.27;;;1.77;;
10005;SDS011;5042;42.626;23.382;2023-03-01T08:56:45;1.73;;;1.63;;
10005;SDS011;5042;42.626;23.382;2023-03-01T08:59:13;1.57;;;1.47;;
10005;SDS011;5042;42.626;23.382;2023-03-01T09:01:41;1.07;;;1.07;;
10005;SDS011;5042;42.626;23.382;2023-03-01T09:04:09;1.83;;;1.73;;
10005;SDS011;5042;42.626;23.382;2023-03-01T09:06:36;2.50;;;1.67;;
10005;SDS011;5042;42.626;23.382;2023-03-01T09:09:04;3.77;;;1.70;;
10005;SDS011;5042;42.626;23.382;2023-03-01T09:11:31;1.77;;;1.67;;
10005;SDS011;5042;42.626;23.382;2023-03-01T09:14:00;0.70;;;0.70;;
10005;SDS011;5042;42.626;23.382;2023-03-01T09:16:27;2.47;;;2.03;;
10005;SDS011;5042;42.626;23.382;2023-03-01T09:18:54;1.40;;;1.30;;
10005;SDS011;5042;42.626;23.382;2023-03-01T09:21:22;1.10;;;1.10;;
10005;SDS011;5042;42.626;23.382;2023-03-01T09:23:49;1.33;;;1.23;;
10005;SDS011;5042;42.626;23.382;2023-03-01T09:26:17;1.63;;;1.53;;
10005;SDS011;5042;42.626;23.382;2023-03-01T09:28:46;1.77;;;1.37;;
10005;SDS011;5042;42.626;23.382;2023-03-01T09:31:15;2.00;;;1.80;;
10005;SDS011;5042;42.626;23.382;2023-03-01T09:33:45;2.67;;;1.67;;
10005;SDS011;5042;42.626;23.382;2023-03-01T09:36:15;2.63;;;1.80;;
10005;SDS011;5042;42.626;23.382;2023-03-01T09:38:44;1.90;;;1.67;;
10005;SDS011;5042;42.626;23.382;2023-03-01T09:41:17;2.73;;;1.90;;
10005;SDS011;5042;42.626;23.382;2023-03-01T09:43:54;1.53;;;1.40;;
10005;SDS011;5042;42.626;23.382;2023-03-01T09:46:27;1.93;;;1.60;;
10005;SDS011;5042;42.626;23.382;2023-03-01T09:48:55;1.40;;;1.30;;
10005;SDS011;5042;42.626;23.382;2023-03-01T09:51:25;1.70;;;1.37;;
10005;SDS011;5042;42.626;23.382;2023-03-01T09:53:53;2.10;;;1.53;;
10005;SDS011;5042;42.626;23.382;2023-03-01T09:56:23;3.30;;;2.13;;
10005;SDS011;5042;42.626;23.382;2023-03-01T09:58:57;2.07;;;1.93;;
10005;SDS011;5042;42.626;23.382;2023-03-01T10:01:32;2.97;;;1.50;;
10005;SDS011;5042;42.626;23.382;2023-03-01T10:04:20;1.80;;;1.70;;
10005;SDS011;5042;42.626;23.382;2023-03-01T10:06:58;1.20;;;1.10;;
10005;SDS011;5042;42.626;23.382;2023-03-01T10:09:33;0.73;;;0.73;;
10005;SDS011;5042;42.626;23.382;2023-03-01T10:12:00;1.63;;;1.53;;
10005;SDS011;5042;42.626;23.382;2023-03-01T10:14:33;2.00;;;1.90;;
10005;SDS011;5042;42.626;23.382;2023-03-01T10:17:08;1.73;;;1.63;;
10005;SDS011;5042;42.626;23.382;2023-03-01T10:19:44;2.00;;;1.80;;
10005;SDS011;5042;42.626;23.382;2023-03-01T10:22:13;3.37;;;2.20;;
10005;SDS011;5042;42.626;23.382;2023-03-01T10:24:46;2.80;;;2.10;;
10005;SDS011;5042;42.626;23.382;2023-03-01T10:27:15;2.57;;;1.97;;
10005;SDS011;5042;42.626;23.382;2023-03-01T10:29:46;2.40;;;2.10;;
10005;SDS011;5042;42.626;23.382;2023-03-01T10:32:22;3.23;;;1.90;;
10005;SDS011;5042;42.626;23.382;2023-03-01T10:34:49;2.73;;;1.63;;
10005;SDS011;5042;42.626;23.382;2023-03-01T10:37:17;2.13;;;1.70;;
10005;SDS011;5042;42.626;23.382;2023-03-01T10:39:56;1.67;;;1.43;;
10005;SDS011;5042;42.626;23.382;2023-03-01T10:42:28;2.30;;;1.83;;
10005;SDS011;5042;42.626;23.382;2023-03-01T10:44:57;2.00;;;1.70;;
10005;SDS011;5042;42.626;23.382;2023-03-01T10:47:41;2.53;;;1.87;;
10005;SDS011;5042;42.626;23.382;2023-03-01T10:50:17;3.07;;;2.23;;
10005;SDS011;5042;42.626;23.382;2023-03-01T10:52:55;1.70;;;1.60;;
10005;SDS011;5042;42.626;23.382;2023-03-01T10:55:25;2.97;;;1.67;;
10005;SDS011;5042;42.626;23.382;2023-03-01T10:58:06;1.77;;;1.57;;
10005;SDS011;5042;42.626;23.382;2023-03-01T11:00:45;2.00;;;1.80;;
10005;SDS011;5042;42.626;23.382;2023-03-01T11:03:16;2.80;;;1.73;;
10005;SDS011;5042;42.626;23.382;2023-03-01T11:05:56;1.20;;;0.80;;
10005;SDS011;5042;42.626;23.382;2023-03-01T11:08:35;2.83;;;2.10;;
10005;SDS011;5042;42.626;23.382;2023-03-01T11:11:12;0.83;;;0.83;;
10005;SDS011;5042;42.626;23.382;2023-03-01T11:13:56;3.57;;;2.10;;
10005;SDS011;5042;42.626;23.382;2023-03-01T11:16:26;2.40;;;2.20;;
10005;SDS011;5042;42.626;23.382;2023-03-01T11:18:57;2.40;;;2.20;;
10005;SDS011;5042;42.626;23.382;2023-03-01T11:21:39;2.63;;;1.90;;
10005;SDS011;5042;42.626;23.382;2023-03-01T11:24:09;2.17;;;1.80;;
10005;SDS011;5042;42.626;23.382;2023-03-01T11:26:38;2.53;;;1.40;;
10005;SDS011;5042;42.626;23.382;2023-03-01T11:29:11;1.27;;;1.03;;
10005;SDS011;5042;42.626;23.382;2023-03-01T11:31:43;3.13;;;2.37;;
10005;SDS011;5042;42.626;23.382;2023-03-01T11:34:14;2.37;;;2.17;;
10005;SDS011;5042;42.626;23.382;2023-03-01T11:36:48;4.93;;;2.67;;
10005;SDS011;5042;42.626;23.382;2023-03-01T11:39:22;2.50;;;2.17;;
10005;SDS011;5042;42.626;23.382;2023-03-01T11:41:58;2.47;;;2.27;;
10005;SDS011;5042;42.626;23.382;2023-03-01T11:44:30;3.23;;;2.40;;
10005;SDS011;5042;42.626;23.382;2023-03-01T11:47:07;2.23;;;2.10;;
10005;SDS011;5042;42.626;23.382;2023-03-01T11:49:57;3.07;;;2.60;;
10005;SDS011;5042;42.626;23.382;2023-03-01T11:52:36;1.90;;;1.70;;
10005;SDS011;5042;42.626;23.382;2023-03-01T11:55:19;3.30;;;2.50;;
10005;SDS011;5042;42.626;23.382;2023-03-01T11:58:00;3.33;;;2.33;;
10005;SDS011;5042;42.626;23.382;2023-03-01T12:00:52;2.47;;;2.07;;
10005;SDS011;5042;42.626;23.382;2023-03-01T12:03:31;3.73;;;2.70;;
10005;SDS011;5042;42.626;23.382;2023-03-01T12:06:26;2.83;;;2.53;;
10005;SDS011;5042;42.626;23.382;2023-03-01T12:09:02;2.50;;;2.10;;
10005;SDS011;5042;42.626;23.382;2023-03-01T12:11:44;2.67;;;2.43;;
10005;SDS011;5042;42.626;23.382;2023-03-01T12:14:41;1.77;;;1.60;;
10005;SDS011;5042;42.626;23.382;2023-03-01T12:17:31;3.33;;;2.50;;
10005;SDS011;5042;42.626;23.382;2023-03-01T12:20:14;2.63;;;2.43;;
10005;SDS011;5042;42.626;23.382;2023-03-01T12:22:55;2.50;;;2.27;;
10005;SDS011;5042;42.626;23.382;2023-03-01T12:25:33;3.37;;;2.30;;
10005;SDS011;5042;42.626;23.382;2023-03-01T12:28:16;2.47;;;2.03;;
10005;SDS011;5042;42.626;23.382;2023-03-01T12:33:57;2.60;;;2.40;;
10005;SDS011;5042;42.626;23.382;2023-03-01T12:36:40;3.73;;;2.10;;
10005;SDS011;5042;42.626;23.382;2023-03-01T12:39:22;2.23;;;1.80;;
10005;SDS011;5042;42.626;23.382;2023-03-01T12:42:01;2.77;;;2.00;;
10005;SDS011;5042;42.626;23.382;2023-03-01T12:44:42;2.13;;;1.90;;
10005;SDS011;5042;42.626;23.382;2023-03-01T12:47:26;2.70;;;2.30;;
10005;SDS011;5042;42.626;23.382;2023-03-01T12:50:10;2.17;;;1.93;;
10005;SDS011;5042;42.626;23.382;2023-03-01T12:52:41;2.07;;;1.83;;
10005;SDS011;5042;42.626;23.382;2023-03-01T12:55:18;1.80;;;1.70;;
10005;SDS011;5042;42.626;23.382;2023-03-01T12:57:53;2.43;;;2.23;;
10005;SDS011;5042;42.626;23.382;2023-03-01T13:00:30;2.07;;;1.90;;
10005;SDS011;5042;42.626;23.382;2023-03-01T13:03:04;2.10;;;2.00;;
10005;SDS011;5042;42.626;23.382;2023-03-01T13:05:45;1.67;;;1.57;;
10005;SDS011;5042;42.626;23.382;2023-03-01T13:08:29;4.87;;;2.40;;
10005;SDS011;5042;42.626;23.382;2023-03-01T13:11:05;2.50;;;2.30;;
10005;SDS011;5042;42.626;23.382;2023-03-01T13:13:38;2.20;;;2.00;;
10005;SDS011;5042;42.626;23.382;2023-03-01T13:16:21;2.73;;;2.37;;
10005;SDS011;5042;42.626;23.382;2023-03-01T13:19:09;2.90;;;2.33;;
10005;SDS011;5042;42.626;23.382;2023-03-01T13:21:41;2.33;;;2.17;;
10005;SDS011;5042;42.626;23.382;2023-03-01T13:24:23;3.27;;;2.40;;
10005;SDS011;5042;42.626;23.382;2023-03-01T13:27:11;2.97;;;2.20;;
10005;SDS011;5042;42.626;23.382;2023-03-01T13:29:50;1.80;;;1.70;;
10005;SDS011;5042;42.626;23.382;2023-03-01T13:32:21;1.67;;;1.40;;
10005;SDS011;5042;42.626;23.382;2023-03-01T13:34:53;2.03;;;1.87;;
10005;SDS011;5042;42.626;23.382;2023-03-01T13:37:25;3.20;;;2.40;;
10005;SDS011;5042;42.626;23.382;2023-03-01T13:39:56;2.30;;;2.10;;
10005;SDS011;5042;42.626;23.382;2023-03-01T13:42:35;2.30;;;2.10;;
10005;SDS011;5042;42.626;23.382;2023-03-01T13:45:04;4.03;;;2.40;;
10005;SDS011;5042;42.626;23.382;2023-03-01T13:47:42;2.30;;;2.10;;
10005;SDS011;5042;42.626;23.382;2023-03-01T13:50:16;2.40;;;2.20;;
10005;SDS011;5042;42.626;23.382;2023-03-01T13:52:47;2.80;;;2.27;;
10005;SDS011;5042;42.626;23.382;2023-03-01T13:55:19;2.30;;;2.10;;
10005;SDS011;5042;42.626;23.382;2023-03-01T13:57:51;2.87;;;2.20;;
10005;SDS011;5042;42.626;23.382;2023-03-01T14:00:26;2.20;;;2.10;;
10005;SDS011;5042;42.626;23.382;2023-03-01T14:02:59;2.10;;;1.80;;
10005;SDS011;5042;42.626;23.382;2023-03-01T14:05:27;2.63;;;2.20;;
10005;SDS011;5042;42.626;23.382;2023-03-01T14:07:55;2.50;;;2.07;;
10005;SDS011;5042;42.626;23.382;2023-03-01T14:10:22;2.37;;;2.07;;
10005;SDS011;5042;42.626;23.382;2023-03-01T14:13:00;2.10;;;1.80;;
10005;SDS011;5042;42.626;23.382;2023-03-01T14:15:34;2.30;;;2.03;;
10005;SDS011;5042;42.626;23.382;2023-03-01T14:18:06;1.90;;;1.80;;
10005;SDS011;5042;42.626;23.382;2023-03-01T14:20:41;2.20;;;2.00;;
10005;SDS011;5042;42.626;23.382;2023-03-01T14:23:11;1.87;;;1.70;;
10005;SDS011;5042;42.626;23.382;2023-03-01T14:25:45;3.40;;;2.03;;
10005;SDS011;5042;42.626;23.382;2023-03-01T14:28:16;2.57;;;2.30;;
10005;SDS011;5042;42.626;23.382;2023-03-01T14:30:46;2.23;;;1.80;;
10005;SDS011;5042;42.626;23.382;2023-03-01T14:33:22;1.70;;;1.60;;
10005;SDS011;5042;42.626;23.382;2023-03-01T14:35:55;2.70;;;2.07;;
10005;SDS011;5042;42.626;23.382;2023-03-01T14:38:28;2.73;;;2.03;;
10005;SDS011;5042;42.626;23.382;2023-03-01T14:40:58;5.10;;;2.23;;
10005;SDS011;5042;42.626;23.382;2023-03-01T14:43:29;2.47;;;2.10;;
10005;SDS011;5042;42.626;23.382;2023-03-01T14:45:57;3.63;;;2.40;;
10005;SDS011;5042;42.626;23.382;2023-03-01T14:48:24;2.67;;;2.23;;
10005;SDS011;5042;42.626;23.382;2023-03-01T14:50:53;3.13;;;2.00;;
10005;SDS011;5042;42.626;23.382;2023-03-01T14:53:20;2.20;;;2.00;;
10005;SDS011;5042;42.626;23.382;2023-03-01T14:55:50;2.50;;;2.10;;
10005;SDS011;5042;42.626;23.382;2023-03-01T14:58:20;2.20;;;2.00;;
10005;SDS011;5042;42.626;23.382;2023-03-01T15:00:51;3.30;;;2.33;;
10005;SDS011;5042;42.626;23.382;2023-03-01T15:03:23;3.70;;;2.20;;
10005;SDS011;5042;42.626;23.382;2023-03-01T15:05:54;2.30;;;2.10;;
10005;SDS011;5042;42.626;23.382;2023-03-01T15:08:23;2.60;;;2.23;;
10005;SDS011;5042;42.626;23.382;2023-03-01T15:10:59;2.93;;;2.63;;
10005;SDS011;5042;42.626;23.382;2023-03-01T15:13:29;3.87;;;2.00;;
10005;SDS011;5042;42.626;23.382;2023-03-01T15:16:03;2.30;;;1.70;;